createdAt,value
2018-02-21T00:01:06.170Z,101562.55
2018-02-21T00:03:33.762Z,101566.64
2018-02-21T00:06:01.383Z,101568.61
2018-02-21T00:08:29.202Z,101568.84
2018-02-21T00:10:56.910Z,101572.19
2018-02-21T00:13:24.609Z,101577.22
2018-02-21T00:15:52.239Z,101578.12
2018-02-21T00:18:19.835Z,101575.41
2018-02-21T00:20:47.483Z,101574.83
2018-02-21T00:23:15.083Z,101577.38
2018-02-21T00:25:42.915Z,101579.22
2018-02-21T00:28:10.524Z,101586.72
2018-02-21T00:30:38.222Z,101588.20
2018-02-21T00:33:05.891Z,101591.78
2018-02-21T00:35:33.583Z,101600.13
2018-02-21T00:38:01.187Z,101595.49
2018-02-21T00:40:28.814Z,101601.85
2018-02-21T00:42:56.479Z,101599.78
2018-02-21T00:45:24.174Z,101596.43
2018-02-21T00:47:51.760Z,101599.40
2018-02-21T00:50:19.522Z,101600.23
2018-02-21T00:52:47.119Z,101607.22
2018-02-21T00:55:14.737Z,101614.96
2018-02-21T00:57:42.344Z,101607.09
2018-02-21T01:00:10.051Z,101601.57
2018-02-21T01:02:37.680Z,101604.84
2018-02-21T01:05:05.343Z,101601.86
2018-02-21T01:07:32.925Z,101604.20
2018-02-21T01:10:00.642Z,101600.97
2018-02-21T01:12:28.314Z,101597.14
2018-02-21T01:14:56.006Z,101589.17
2018-02-21T01:17:23.739Z,101601.14
2018-02-21T01:19:51.570Z,101598.66
2018-02-21T01:22:19.242Z,101604.20
2018-02-21T01:24:47.107Z,101610.23
2018-02-21T01:27:14.781Z,101617.81
2018-02-21T01:29:42.510Z,101616.73
2018-02-21T01:32:10.105Z,101613.66
2018-02-21T01:34:37.726Z,101618.89
2018-02-21T01:37:05.372Z,101616.39
2018-02-21T01:39:33.082Z,101617.29
2018-02-21T01:42:00.684Z,101623.61
2018-02-21T01:44:28.390Z,101616.95
2018-02-21T01:46:56.065Z,101608.14
2018-02-21T01:49:23.857Z,101596.58
2018-02-21T01:51:51.525Z,101590.68
2018-02-21T01:54:19.281Z,101590.88
2018-02-21T01:56:46.954Z,101592.41
2018-02-21T01:59:14.673Z,101602.08
2018-02-21T02:01:42.412Z,101606.05
2018-02-21T02:04:10.113Z,101610.48
2018-02-21T02:06:37.795Z,101598.55
2018-02-21T02:09:05.512Z,101592.90
2018-02-21T02:11:33.177Z,101594.40
2018-02-21T02:14:00.902Z,101597.72
2018-02-21T02:16:28.567Z,101597.91
2018-02-21T02:18:56.291Z,101598.89
2018-02-21T02:21:23.973Z,101602.23
2018-02-21T02:23:51.667Z,101595.67
2018-02-21T02:26:19.402Z,101589.35
2018-02-21T02:28:47.102Z,101590.30
2018-02-21T02:31:14.781Z,101588.84
2018-02-21T02:33:42.487Z,101590.72
2018-02-21T02:36:10.160Z,101603.09
2018-02-21T02:52:04.786Z,101612.80
2018-02-21T02:54:32.503Z,101609.20
2018-02-21T02:57:00.189Z,101614.55
2018-02-21T02:59:27.885Z,101621.43
2018-02-21T03:01:55.558Z,101625.95
2018-02-21T03:04:23.263Z,101625.53
2018-02-21T03:06:51.057Z,101620.58
2018-02-21T03:09:18.730Z,101622.75
2018-02-21T03:11:46.430Z,101620.20
2018-02-21T03:14:14.094Z,101630.00
2018-02-21T03:16:41.928Z,101637.59
2018-02-21T03:19:09.606Z,101644.20
2018-02-21T03:21:37.294Z,101642.27
2018-02-21T03:24:04.981Z,101651.75
2018-02-21T03:26:32.822Z,101647.75
2018-02-21T03:29:00.502Z,101649.63
2018-02-21T03:31:28.215Z,101655.28
2018-02-21T03:33:55.954Z,101659.01
2018-02-21T03:36:23.627Z,101662.97
2018-02-21T03:38:51.446Z,101660.37
2018-02-21T03:41:19.123Z,101656.64
2018-02-21T03:43:46.882Z,101661.37
2018-02-21T03:46:14.624Z,101659.77
2018-02-21T03:48:42.323Z,101659.09
2018-02-21T03:51:10.006Z,101660.61
2018-02-21T03:53:37.712Z,101663.96
2018-02-21T03:56:05.382Z,101675.56
2018-02-21T03:58:33.098Z,101678.30
2018-02-21T04:01:00.771Z,101680.09
2018-02-21T04:03:28.512Z,101677.73
2018-02-21T04:05:56.186Z,101673.66
2018-02-21T04:08:23.893Z,101680.89
2018-02-21T04:10:51.494Z,101689.14
2018-02-21T04:13:19.386Z,101689.28
2018-02-21T04:15:47.070Z,101694.15
2018-02-21T04:18:14.699Z,101691.88
2018-02-21T04:20:42.370Z,101690.52
2018-02-21T04:23:10.150Z,101697.34
2018-02-21T04:25:37.878Z,101694.80
2018-02-21T04:28:05.594Z,101702.78
2018-02-21T04:30:33.281Z,101703.87
2018-02-21T04:33:01.124Z,101700.57
2018-02-21T04:35:28.798Z,101705.52
2018-02-21T04:37:56.894Z,101711.52
2018-02-21T04:40:24.567Z,101713.30
2018-02-21T04:42:52.326Z,101710.42
2018-02-21T04:45:19.989Z,101712.79
2018-02-21T04:47:47.766Z,101710.23
2018-02-21T04:50:15.452Z,101711.47
2018-02-21T04:52:43.234Z,101715.57
2018-02-21T05:08:33.802Z,101710.14
2018-02-21T05:11:01.509Z,101704.48
2018-02-21T05:13:29.209Z,101705.38
2018-02-21T05:15:56.938Z,101707.55
2018-02-21T05:18:24.635Z,101703.08
2018-02-21T05:20:52.315Z,101705.09
2018-02-21T05:23:20.010Z,101697.08
2018-02-21T05:25:47.662Z,101703.12
2018-02-21T05:28:15.342Z,101696.17
2018-02-21T05:30:43.126Z,101694.90
2018-02-21T05:33:10.799Z,101698.58
2018-02-21T05:35:38.499Z,101690.38
2018-02-21T05:38:06.239Z,101689.34
2018-02-21T05:40:33.978Z,101694.95
2018-02-21T05:43:01.694Z,101698.25
2018-02-21T05:45:29.422Z,101693.92
2018-02-21T05:47:57.740Z,101690.19
2018-02-21T05:50:25.429Z,101696.56
2018-02-21T05:52:53.126Z,101698.39
2018-02-21T05:55:20.801Z,101701.13
2018-02-21T05:57:48.499Z,101702.02
2018-02-21T06:00:16.178Z,101708.17
2018-02-21T06:02:43.849Z,101698.83
2018-02-21T06:05:11.451Z,101705.73
2018-02-21T06:07:39.082Z,101707.89
2018-02-21T06:10:06.701Z,101710.30
2018-02-21T06:12:34.286Z,101715.94
2018-02-21T06:15:01.947Z,101712.57
2018-02-21T06:17:29.550Z,101717.64
2018-02-21T06:19:57.182Z,101722.22
2018-02-21T06:22:25.008Z,101726.48
2018-02-21T06:24:52.619Z,101722.00
2018-02-21T06:27:20.214Z,101725.22
2018-02-21T06:29:47.855Z,101737.91
2018-02-21T06:32:15.549Z,101732.70
2018-02-21T06:34:43.166Z,101738.59
2018-02-21T06:37:10.787Z,101735.13
2018-02-21T06:39:38.386Z,101744.02
2018-02-21T06:42:06.013Z,101749.84
2018-02-21T06:44:33.639Z,101760.19
2018-02-21T06:47:01.232Z,101764.53
2018-02-21T06:49:28.867Z,101756.66
2018-02-21T06:51:56.454Z,101761.80
2018-02-21T06:54:24.096Z,101754.88
2018-02-21T06:56:51.687Z,101759.64
2018-02-21T06:59:19.299Z,101761.99
2018-02-21T07:01:46.974Z,101762.62
2018-02-21T07:04:14.588Z,101768.05
2018-02-21T07:06:42.143Z,101766.91
2018-02-21T07:09:09.846Z,101774.94
2018-02-21T07:11:37.518Z,101774.17
2018-02-21T07:14:05.142Z,101775.27
2018-02-21T07:16:32.853Z,101781.48
2018-02-21T07:19:00.549Z,101784.54
2018-02-21T07:21:28.296Z,101776.60
2018-02-21T07:23:56.153Z,101780.94
2018-02-21T07:26:23.838Z,101783.86
2018-02-21T07:28:51.596Z,101784.28
2018-02-21T07:31:19.219Z,101791.55
2018-02-21T07:33:46.925Z,101785.59
2018-02-21T07:36:14.611Z,101789.58
2018-02-21T07:38:42.319Z,101793.69
2018-02-21T07:41:10.020Z,101790.78
2018-02-21T07:43:37.728Z,101782.75
2018-02-21T07:46:05.427Z,101787.52
2018-02-21T07:48:33.138Z,101774.85
2018-02-21T07:51:00.850Z,101781.41
2018-02-21T07:53:28.503Z,101783.45
2018-02-21T07:55:56.210Z,101782.09
2018-02-21T07:58:23.891Z,101772.36
2018-02-21T08:00:51.583Z,101769.72
2018-02-21T08:03:19.274Z,101766.23
2018-02-21T08:05:47.017Z,101764.87
2018-02-21T08:08:14.690Z,101765.17
2018-02-21T08:10:42.445Z,101769.41
2018-02-21T08:13:10.138Z,101769.91
2018-02-21T08:15:37.850Z,101767.41
2018-02-21T08:18:05.530Z,101774.64
2018-02-21T08:20:33.405Z,101778.50
2018-02-21T08:23:01.077Z,101776.70
2018-02-21T08:25:28.794Z,101780.77
2018-02-21T08:27:56.938Z,101774.31
2018-02-21T08:30:24.694Z,101780.40
2018-02-21T08:32:52.370Z,101785.69
2018-02-21T08:35:20.074Z,101789.05
2018-02-21T08:37:47.761Z,101782.81
2018-02-21T08:40:15.514Z,101783.48
2018-02-21T08:42:43.186Z,101781.82
2018-02-21T08:45:11.063Z,101786.55
2018-02-21T08:47:38.733Z,101792.78
2018-02-21T08:50:06.449Z,101791.03
2018-02-21T08:52:34.285Z,101790.84
2018-02-21T08:55:02.027Z,101790.47
2018-02-21T08:57:29.715Z,101797.59
2018-02-21T08:59:57.546Z,101787.97
2018-02-21T09:02:25.218Z,101786.45
2018-02-21T09:04:52.942Z,101789.33
2018-02-21T09:07:20.627Z,101789.90
2018-02-21T09:09:48.413Z,101782.84
2018-02-21T09:12:16.095Z,101786.09
2018-02-21T09:14:43.794Z,101782.95
2018-02-21T09:17:11.472Z,101778.80
2018-02-21T09:19:39.179Z,101775.33
2018-02-21T09:22:06.863Z,101769.98
2018-02-21T09:24:34.558Z,101761.78
2018-02-21T09:27:02.165Z,101761.72
2018-02-21T09:29:29.866Z,101768.88
2018-02-21T09:31:57.558Z,101768.95
2018-02-21T09:34:25.183Z,101769.25
2018-02-21T09:36:52.778Z,101767.87
2018-02-21T09:39:20.501Z,101763.32
2018-02-21T09:41:48.174Z,101767.12
2018-02-21T09:44:15.826Z,101766.41
2018-02-21T09:46:43.574Z,101767.73
2018-02-21T09:49:11.447Z,101765.73
2018-02-21T09:51:39.174Z,101769.17
2018-02-21T09:54:06.823Z,101764.69
2018-02-21T09:56:34.462Z,101757.79
2018-02-21T09:59:02.074Z,101763.46
2018-02-21T10:01:29.699Z,101761.30
2018-02-21T10:03:57.482Z,101768.53
2018-02-21T10:06:25.111Z,101768.56
2018-02-21T10:08:52.710Z,101769.03
2018-02-21T10:11:20.342Z,101765.92
2018-02-21T10:13:47.950Z,101762.90
2018-02-21T10:16:15.605Z,101758.62
2018-02-21T10:18:43.205Z,101762.09
2018-02-21T10:21:10.822Z,101762.59
2018-02-21T10:23:38.451Z,101765.39
2018-02-21T10:26:06.075Z,101770.31
2018-02-21T10:28:33.682Z,101763.38
2018-02-21T10:31:01.316Z,101759.87
2018-02-21T10:33:28.924Z,101758.95
2018-02-21T10:35:56.563Z,101764.52
2018-02-21T10:38:24.176Z,101763.75
2018-02-21T10:40:51.777Z,101763.02
2018-02-21T10:43:19.510Z,101755.19
2018-02-21T10:45:47.137Z,101752.63
2018-02-21T10:48:14.746Z,101752.41
2018-02-21T10:50:42.377Z,101752.69
2018-02-21T10:53:10.050Z,101751.33
2018-02-21T10:55:37.767Z,101742.82
2018-02-21T10:58:05.402Z,101749.40
2018-02-21T11:00:38.587Z,101745.09
2018-02-21T11:03:06.202Z,101739.71
2018-02-21T11:05:33.801Z,101732.72
2018-02-21T11:08:05.210Z,101730.02
2018-02-21T11:10:32.809Z,101740.77
2018-02-21T11:13:00.437Z,101731.36
2018-02-21T11:15:28.039Z,101736.45
2018-02-21T11:17:55.998Z,101736.44
2018-02-21T11:20:23.605Z,101736.20
2018-02-21T11:22:51.244Z,101740.38
2018-02-21T11:25:18.835Z,101736.84
2018-02-21T11:27:46.454Z,101737.31
2018-02-21T11:30:14.052Z,101739.44
2018-02-21T11:32:41.690Z,101739.35
2018-02-21T11:35:09.284Z,101735.09
2018-02-21T11:37:36.988Z,101737.62
2018-02-21T11:40:04.583Z,101735.72
2018-02-21T11:42:32.250Z,101735.19
2018-02-21T11:44:59.867Z,101733.09
2018-02-21T11:47:27.493Z,101727.38
2018-02-21T11:49:55.099Z,101725.66
2018-02-21T11:52:22.690Z,101725.09
2018-02-21T11:54:50.357Z,101727.55
2018-02-21T11:57:17.983Z,101723.38
2018-02-21T11:59:45.625Z,101712.53
2018-02-21T12:02:13.230Z,101715.66
2018-02-21T12:04:40.862Z,101709.34
2018-02-21T12:07:08.471Z,101703.15
2018-02-21T12:09:36.101Z,101700.72
2018-02-21T12:12:03.809Z,101704.16
2018-02-21T12:14:31.427Z,101697.86
2018-02-21T12:16:59.130Z,101699.19
2018-02-21T12:19:26.778Z,101696.61
2018-02-21T12:21:54.431Z,101690.58
2018-02-21T12:24:22.062Z,101697.63
2018-02-21T12:26:49.679Z,101694.95
2018-02-21T12:29:17.326Z,101689.11
2018-02-21T12:31:44.970Z,101693.95
2018-02-21T12:34:12.619Z,101691.22
2018-02-21T12:36:40.235Z,101693.77
2018-02-21T12:52:34.702Z,101685.56
2018-02-21T12:55:02.356Z,101676.02
2018-02-21T12:57:29.954Z,101676.80
2018-02-21T12:59:57.611Z,101676.20
2018-02-21T13:02:25.284Z,101669.50
2018-02-21T13:04:52.934Z,101667.92
2018-02-21T13:07:20.528Z,101656.81
2018-02-21T13:09:48.162Z,101655.84
2018-02-21T13:12:15.811Z,101658.62
2018-02-21T13:14:43.497Z,101653.30
2018-02-21T13:17:11.107Z,101652.33
2018-02-21T13:19:38.729Z,101657.39
2018-02-21T13:22:06.337Z,101646.44
2018-02-21T13:24:33.974Z,101649.11
2018-02-21T13:27:01.579Z,101649.11
2018-02-21T13:29:29.222Z,101653.27
2018-02-21T13:31:56.819Z,101646.02
2018-02-21T13:34:24.470Z,101643.52
2018-02-21T13:36:52.087Z,101641.68
2018-02-21T13:39:19.698Z,101636.41
2018-02-21T13:41:47.351Z,101634.74
2018-02-21T13:44:14.977Z,101627.59
2018-02-21T13:46:42.613Z,101627.94
2018-02-21T13:49:10.299Z,101618.13
2018-02-21T13:51:37.898Z,101615.88
2018-02-21T13:54:05.687Z,101616.53
2018-02-21T13:56:33.313Z,101612.09
2018-02-21T13:59:00.970Z,101609.19
2018-02-21T14:01:28.655Z,101614.49
2018-02-21T14:03:56.298Z,101611.28
2018-02-21T14:06:23.915Z,101604.04
2018-02-21T14:08:51.555Z,101609.03
2018-02-21T14:11:19.154Z,101608.00
2018-02-21T14:13:46.787Z,101600.95
2018-02-21T14:16:14.410Z,101594.27
2018-02-21T14:18:42.043Z,101589.94
2018-02-21T14:21:09.630Z,101595.16
2018-02-21T14:23:37.386Z,101590.88
2018-02-21T14:26:04.974Z,101586.21
2018-02-21T14:28:32.611Z,101589.46
2018-02-21T14:31:00.275Z,101590.23
2018-02-21T14:33:28.020Z,101586.81
2018-02-21T14:35:55.680Z,101587.70
2018-02-21T14:38:23.346Z,101588.99
2018-02-21T14:40:50.986Z,101585.59
2018-02-21T14:43:18.623Z,101593.28
2018-02-21T14:45:46.234Z,101590.95
2018-02-21T14:48:13.878Z,101593.89
2018-02-21T14:50:41.686Z,101592.06
2018-02-21T14:53:09.378Z,101588.59
2018-02-21T14:55:36.991Z,101589.20
2018-02-21T14:58:04.647Z,101587.27
2018-02-21T15:00:32.277Z,101590.95
2018-02-21T15:02:59.930Z,101585.52
2018-02-21T15:05:27.583Z,101593.53
2018-02-21T15:07:55.190Z,101590.89
2018-02-21T15:10:22.827Z,101589.92
2018-02-21T15:12:50.439Z,101587.73
2018-02-21T15:15:18.091Z,101588.48
2018-02-21T15:17:45.694Z,101593.64
2018-02-21T15:20:13.327Z,101595.58
2018-02-21T15:22:40.939Z,101595.77
2018-02-21T15:25:08.566Z,101587.89
2018-02-21T15:27:36.162Z,101587.34
2018-02-21T15:30:03.892Z,101595.00
2018-02-21T15:32:31.494Z,101595.48
2018-02-21T15:34:59.151Z,101596.36
2018-02-21T15:37:26.738Z,101593.24
2018-02-21T15:39:54.372Z,101592.19
2018-02-21T15:42:21.990Z,101600.22
2018-02-21T15:44:49.625Z,101598.30
2018-02-21T15:47:17.233Z,101590.34
2018-02-21T15:49:44.831Z,101599.48
2018-02-21T15:52:12.467Z,101602.36
2018-02-21T15:54:40.081Z,101601.65
2018-02-21T15:57:07.756Z,101603.37
2018-02-21T15:59:35.363Z,101609.20
2018-02-21T16:02:03.024Z,101600.41
2018-02-21T16:04:30.783Z,101602.15
2018-02-21T16:06:58.387Z,101593.53
2018-02-21T16:09:26.054Z,101591.30
2018-02-21T16:11:53.659Z,101588.18
2018-02-21T16:14:21.295Z,101593.58
2018-02-21T16:16:48.910Z,101593.64
2018-02-21T16:19:16.587Z,101590.05
2018-02-21T16:21:44.219Z,101593.75
2018-02-21T16:24:11.870Z,101595.65
2018-02-21T16:26:39.460Z,101596.27
2018-02-21T16:29:07.052Z,101597.60
2018-02-21T16:31:34.778Z,101601.27
2018-02-21T16:34:02.371Z,101606.36
2018-02-21T16:36:29.998Z,101605.89
2018-02-21T16:38:57.610Z,101599.27
2018-02-21T16:41:25.365Z,101606.48
2018-02-21T16:43:52.951Z,101598.45
2018-02-21T16:46:20.596Z,101598.86
2018-02-21T16:48:48.194Z,101600.55
2018-02-21T16:51:15.834Z,101596.09
2018-02-21T16:53:43.440Z,101602.30
2018-02-21T16:56:11.166Z,101606.63
2018-02-21T16:58:38.767Z,101608.82
2018-02-21T17:01:06.464Z,101614.84
2018-02-21T17:03:34.134Z,101613.84
2018-02-21T17:06:01.771Z,101620.22
2018-02-21T17:08:29.363Z,101628.86
2018-02-21T17:10:56.999Z,101622.73
2018-02-21T17:13:24.614Z,101625.67
2018-02-21T17:15:52.239Z,101626.23
2018-02-21T17:18:19.830Z,101629.02
2018-02-21T17:20:47.599Z,101628.98
2018-02-21T17:23:15.207Z,101627.21
2018-02-21T17:25:42.854Z,101626.06
2018-02-21T17:28:10.458Z,101630.05
2018-02-21T17:30:38.107Z,101629.26
2018-02-21T17:33:05.702Z,101627.13
2018-02-21T17:35:33.336Z,101627.70
2018-02-21T17:38:00.951Z,101625.73
2018-02-21T17:40:28.576Z,101628.27
2018-02-21T17:42:56.219Z,101628.25
2018-02-21T17:45:23.846Z,101623.41
2018-02-21T17:47:51.460Z,101633.08
2018-02-21T17:50:19.092Z,101632.87
2018-02-21T17:52:46.694Z,101633.87
2018-02-21T17:55:14.347Z,101634.71
2018-02-21T17:57:41.950Z,101633.58
2018-02-21T18:00:09.630Z,101632.34
2018-02-21T18:02:37.220Z,101631.54
2018-02-21T18:05:04.863Z,101631.77
2018-02-21T18:07:32.478Z,101633.42
2018-02-21T18:10:00.124Z,101635.14
2018-02-21T18:12:27.776Z,101638.64
2018-02-21T18:14:55.404Z,101638.66
2018-02-21T18:17:23.014Z,101634.78
2018-02-21T18:19:50.721Z,101642.37
2018-02-21T18:22:18.319Z,101640.46
2018-02-21T18:24:45.981Z,101639.84
2018-02-21T18:27:13.598Z,101642.73
2018-02-21T18:29:41.250Z,101650.22
2018-02-21T18:32:08.846Z,101643.60
2018-02-21T18:34:36.466Z,101644.74
2018-02-21T18:37:04.102Z,101645.66
2018-02-21T18:39:31.738Z,101638.86
2018-02-21T18:41:59.363Z,101632.94
2018-02-21T18:44:26.987Z,101637.34
2018-02-21T18:46:54.582Z,101642.97
2018-02-21T18:49:22.237Z,101636.81
2018-02-21T18:51:49.867Z,101640.48
2018-02-21T18:54:17.519Z,101645.09
2018-02-21T18:56:45.145Z,101639.77
2018-02-21T18:59:12.774Z,101643.98
2018-02-21T19:01:40.448Z,101645.62
2018-02-21T19:04:08.076Z,101645.52
2018-02-21T19:06:35.674Z,101644.30
2018-02-21T19:09:03.388Z,101646.02
2018-02-21T19:11:31.016Z,101649.19
2018-02-21T19:13:58.637Z,101648.28
2018-02-21T19:16:26.256Z,101647.55
2018-02-21T19:18:53.877Z,101641.73
2018-02-21T19:21:21.484Z,101641.64
2018-02-21T19:23:49.385Z,101639.48
2018-02-21T19:26:16.972Z,101637.66
2018-02-21T19:28:44.626Z,101641.64
2018-02-21T19:31:12.250Z,101643.39
2018-02-21T19:33:39.838Z,101643.29
2018-02-21T19:36:07.488Z,101644.30
2018-02-21T19:38:35.106Z,101645.95
2018-02-21T19:41:02.736Z,101643.61
2018-02-21T19:43:30.351Z,101648.39
2018-02-21T19:45:58.014Z,101647.80
2018-02-21T19:48:25.609Z,101644.72
2018-02-21T19:50:53.227Z,101644.92
2018-02-21T19:53:20.869Z,101647.97
2018-02-21T19:55:48.452Z,101649.51
2018-02-21T19:58:16.051Z,101651.67
2018-02-21T20:00:43.683Z,101645.78
2018-02-21T20:03:11.311Z,101653.05
2018-02-21T20:05:38.926Z,101649.06
2018-02-21T20:08:06.551Z,101652.88
2018-02-21T20:10:34.206Z,101656.15
2018-02-21T20:13:01.844Z,101657.27
2018-02-21T20:15:29.486Z,101664.20
2018-02-21T20:17:57.698Z,101662.77
2018-02-21T20:20:25.331Z,101661.17
2018-02-21T20:22:52.960Z,101666.53
2018-02-21T20:25:20.583Z,101672.98
2018-02-21T20:27:48.238Z,101665.83
2018-02-21T20:30:15.921Z,101668.70
2018-02-21T20:32:43.530Z,101670.27
2018-02-21T20:35:11.174Z,101669.64
2018-02-21T20:37:38.835Z,101673.84
2018-02-21T20:40:06.475Z,101672.22
2018-02-21T20:42:34.070Z,101674.37
2018-02-21T20:45:01.714Z,101681.23
2018-02-21T20:47:29.301Z,101679.81
2018-02-21T20:49:56.930Z,101673.70
2018-02-21T20:52:24.525Z,101678.17
2018-02-21T20:54:52.137Z,101685.55
2018-02-21T20:57:19.735Z,101679.91
2018-02-21T20:59:47.362Z,101683.47
2018-02-21T21:02:14.959Z,101690.09
2018-02-21T21:04:42.610Z,101686.31
2018-02-21T21:07:10.207Z,101690.19
2018-02-21T21:09:37.832Z,101697.94
2018-02-21T21:12:05.439Z,101701.72
2018-02-21T21:14:33.058Z,101696.09
2018-02-21T21:17:00.741Z,101695.20
2018-02-21T21:19:28.326Z,101696.53
2018-02-21T21:21:55.914Z,101697.32
2018-02-21T21:24:23.570Z,101701.40
2018-02-21T21:26:51.167Z,101698.41
2018-02-21T21:29:18.811Z,101703.33
2018-02-21T21:31:46.417Z,101701.19
2018-02-21T21:34:14.039Z,101706.59
2018-02-21T21:36:41.748Z,101700.27
2018-02-21T21:39:09.497Z,101698.37
2018-02-21T21:41:37.066Z,101703.05
2018-02-21T21:44:04.698Z,101696.30
2018-02-21T21:46:32.290Z,101695.28
2018-02-21T21:48:59.991Z,101704.34
2018-02-21T21:51:27.593Z,101700.12
2018-02-21T21:53:55.213Z,101700.75
2018-02-21T21:56:22.822Z,101702.30
2018-02-21T21:58:50.452Z,101704.83
2018-02-21T22:01:18.052Z,101704.29
2018-02-21T22:03:45.680Z,101698.06
2018-02-21T22:06:13.364Z,101701.21
2018-02-21T22:08:40.988Z,101694.20
2018-02-21T22:11:08.579Z,101695.37
2018-02-21T22:13:36.206Z,101695.84
2018-02-21T22:16:03.823Z,101692.36
2018-02-21T22:18:31.443Z,101695.10
2018-02-21T22:20:59.059Z,101687.37
2018-02-21T22:23:26.695Z,101687.47
2018-02-21T22:25:54.444Z,101693.88
2018-02-21T22:28:22.064Z,101694.61
2018-02-21T22:30:49.671Z,101694.20
2018-02-21T22:33:17.292Z,101692.43
2018-02-21T22:35:44.884Z,101701.52
2018-02-21T22:38:12.521Z,101701.12
2018-02-21T22:40:40.119Z,101702.98
2018-02-21T22:43:07.765Z,101706.69
2018-02-21T22:45:35.370Z,101707.49
2018-02-21T22:48:02.979Z,101711.13
2018-02-21T22:50:30.571Z,101703.34
2018-02-21T22:52:58.275Z,101708.28
2018-02-21T22:55:25.866Z,101704.42
2018-02-21T22:57:53.501Z,101712.77
2018-02-21T23:00:21.097Z,101714.91
2018-02-21T23:02:48.711Z,101716.81
2018-02-21T23:05:16.312Z,101711.91
2018-02-21T23:07:43.941Z,101713.85
2018-02-21T23:10:11.550Z,101712.33
2018-02-21T23:12:39.162Z,101712.05
2018-02-21T23:15:06.766Z,101710.21
2018-02-21T23:17:34.398Z,101719.99
2018-02-21T23:20:01.990Z,101712.50
2018-02-21T23:22:29.674Z,101716.80
2018-02-21T23:24:57.269Z,101707.95
2018-02-21T23:27:24.902Z,101707.82
2018-02-21T23:29:52.536Z,101706.17
2018-02-21T23:32:20.154Z,101707.69
2018-02-21T23:34:47.755Z,101695.02
2018-02-21T23:37:15.378Z,101694.75
2018-02-21T23:39:42.977Z,101697.78
2018-02-21T23:42:10.607Z,101693.97
2018-02-21T23:44:38.210Z,101696.23
2018-02-21T23:47:05.811Z,101693.88
2018-02-21T23:49:33.530Z,101692.27
2018-02-21T23:52:01.130Z,101698.27
2018-02-21T23:54:28.831Z,101698.14
2018-02-21T23:56:56.458Z,101697.30
2018-02-21T23:59:24.066Z,101705.34
